sensor_id;sensor_type;location;lat;lon;timestamp;P1;durP1;ratioP1;P2;durP2;ratioP2
63581;SDS011;49727;51.078;17.066;2023-03-23T00:13:39;27.87;;;17.00;;
63581;SDS011;49727;51.078;17.066;2023-03-23T00:28:39;26.10;;;16.02;;
63581;SDS011;49727;51.078;17.066;2023-03-23T00:43:39;24.55;;;16.77;;
63581;SDS011;49727;51.078;17.066;2023-03-23T00:58:40;26.20;;;15.52;;
63581;SDS011;49727;51.078;17.066;2023-03-23T01:13:44;18.88;;;11.70;;
63581;SDS011;49727;51.078;17.066;2023-03-23T01:28:44;20.47;;;12.83;;
63581;SDS011;49727;51.078;17.066;2023-03-23T01:43:58;22.83;;;12.63;;
63581;SDS011;49727;51.078;17.066;2023-03-23T01:59:04;16.33;;;8.83;;
63581;SDS011;49727;51.078;17.066;2023-03-23T02:14:05;14.80;;;9.00;;
63581;SDS011;49727;51.078;17.066;2023-03-23T02:44:22;16.03;;;8.37;;
63581;SDS011;49727;51.078;17.066;2023-03-23T02:59:24;16.77;;;8.07;;
63581;SDS011;49727;51.078;17.066;2023-03-23T03:14:27;12.95;;;7.30;;
63581;SDS011;49727;51.078;17.066;2023-03-23T03:29:32;10.50;;;5.97;;
63581;SDS011;49727;51.078;17.066;2023-03-23T03:44:35;9.13;;;5.93;;
63581;SDS011;49727;51.078;17.066;2023-03-23T03:59:35;11.35;;;5.75;;
63581;SDS011;49727;51.078;17.066;2023-03-23T04:14:36;15.02;;;6.80;;
63581;SDS011;49727;51.078;17.066;2023-03-23T04:29:36;6.60;;;4.60;;
63581;SDS011;49727;51.078;17.066;2023-03-23T04:44:37;7.28;;;4.22;;
63581;SDS011;49727;51.078;17.066;2023-03-23T04:59:38;5.73;;;4.17;;
63581;SDS011;49727;51.078;17.066;2023-03-23T05:14:42;7.82;;;4.82;;
63581;SDS011;49727;51.078;17.066;2023-03-23T05:29:42;8.17;;;4.00;;
63581;SDS011;49727;51.078;17.066;2023-03-23T05:44:43;5.57;;;3.70;;
63581;SDS011;49727;51.078;17.066;2023-03-23T05:59:45;6.03;;;3.87;;
63581;SDS011;49727;51.078;17.066;2023-03-23T06:14:46;7.38;;;3.28;;
63581;SDS011;49727;51.078;17.066;2023-03-23T06:29:47;4.90;;;3.10;;
63581;SDS011;49727;51.078;17.066;2023-03-23T06:44:48;3.83;;;2.33;;
63581;SDS011;49727;51.078;17.066;2023-03-23T06:59:49;6.60;;;3.10;;
63581;SDS011;49727;51.078;17.066;2023-03-23T07:14:49;3.15;;;2.13;;
63581;SDS011;49727;51.078;17.066;2023-03-23T07:29:50;9.02;;;2.85;;
63581;SDS011;49727;51.078;17.066;2023-03-23T07:44:51;8.35;;;3.40;;
63581;SDS011;49727;51.078;17.066;2023-03-23T07:59:51;3.97;;;2.53;;
63581;SDS011;49727;51.078;17.066;2023-03-23T08:14:52;4.65;;;2.47;;
63581;SDS011;49727;51.078;17.066;2023-03-23T08:29:53;5.50;;;2.87;;
63581;SDS011;49727;51.078;17.066;2023-03-23T08:44:54;6.30;;;3.10;;
63581;SDS011;49727;51.078;17.066;2023-03-23T08:59:54;5.57;;;2.38;;
63581;SDS011;49727;51.078;17.066;2023-03-23T09:14:59;3.53;;;2.00;;
63581;SDS011;49727;51.078;17.066;2023-03-23T09:30:01;2.90;;;1.80;;
63581;SDS011;49727;51.078;17.066;2023-03-23T09:45:48;6.18;;;2.00;;
63581;SDS011;49727;51.078;17.066;2023-03-23T10:00:35;10.43;;;5.43;;
63581;SDS011;49727;51.078;17.066;2023-03-23T10:15:38;6.47;;;2.93;;
63581;SDS011;49727;51.078;17.066;2023-03-23T10:30:41;3.70;;;1.10;;
63581;SDS011;49727;51.078;17.066;2023-03-23T10:45:45;5.33;;;1.30;;
63581;SDS011;49727;51.078;17.066;2023-03-23T11:00:51;3.23;;;0.80;;
63581;SDS011;49727;51.078;17.066;2023-03-23T11:15:52;1.43;;;0.90;;
63581;SDS011;49727;51.078;17.066;2023-03-23T11:30:53;1.60;;;0.90;;
63581;SDS011;49727;51.078;17.066;2023-03-23T11:45:58;3.20;;;0.90;;
63581;SDS011;49727;51.078;17.066;2023-03-23T12:17:05;3.10;;;1.40;;
63581;SDS011;49727;51.078;17.066;2023-03-23T12:32:19;1.90;;;1.10;;
63581;SDS011;49727;51.078;17.066;2023-03-23T13:02:52;4.57;;;1.40;;
63581;SDS011;49727;51.078;17.066;2023-03-23T13:33:02;5.47;;;2.00;;
63581;SDS011;49727;51.078;17.066;2023-03-23T13:48:17;4.40;;;1.90;;
63581;SDS011;49727;51.078;17.066;2023-03-23T14:03:25;12.70;;;3.50;;
63581;SDS011;49727;51.078;17.066;2023-03-23T14:18:35;3.60;;;2.10;;
63581;SDS011;49727;51.078;17.066;2023-03-23T14:33:38;4.67;;;2.07;;
63581;SDS011;49727;51.078;17.066;2023-03-23T14:48:41;3.17;;;2.07;;
63581;SDS011;49727;51.078;17.066;2023-03-23T15:03:42;3.22;;;2.20;;
63581;SDS011;49727;51.078;17.066;2023-03-23T15:18:50;8.73;;;2.00;;
63581;SDS011;49727;51.078;17.066;2023-03-23T15:33:56;4.77;;;2.17;;
63581;SDS011;49727;51.078;17.066;2023-03-23T16:04:12;4.00;;;2.65;;
63581;SDS011;49727;51.078;17.066;2023-03-23T16:19:15;4.30;;;2.63;;
63581;SDS011;49727;51.078;17.066;2023-03-23T16:34:17;7.20;;;3.07;;
63581;SDS011;49727;51.078;17.066;2023-03-23T16:49:17;8.05;;;3.20;;
63581;SDS011;49727;51.078;17.066;2023-03-23T17:04:17;5.18;;;2.90;;
63581;SDS011;49727;51.078;17.066;2023-03-23T17:19:18;8.68;;;2.88;;
63581;SDS011;49727;51.078;17.066;2023-03-23T17:34:18;5.43;;;2.80;;
63581;SDS011;49727;51.078;17.066;2023-03-23T17:49:19;6.55;;;2.67;;
63581;SDS011;49727;51.078;17.066;2023-03-23T18:04:19;5.93;;;2.83;;
63581;SDS011;49727;51.078;17.066;2023-03-23T18:19:21;9.97;;;4.10;;
63581;SDS011;49727;51.078;17.066;2023-03-23T18:34:21;6.95;;;3.47;;
63581;SDS011;49727;51.078;17.066;2023-03-23T18:49:22;7.78;;;4.13;;
63581;SDS011;49727;51.078;17.066;2023-03-23T19:04:22;9.30;;;4.97;;
63581;SDS011;49727;51.078;17.066;2023-03-23T19:19:23;13.38;;;5.18;;
63581;SDS011;49727;51.078;17.066;2023-03-23T19:34:23;8.50;;;5.13;;
63581;SDS011;49727;51.078;17.066;2023-03-23T19:49:26;9.00;;;5.18;;
63581;SDS011;49727;51.078;17.066;2023-03-23T20:04:27;10.40;;;4.93;;
63581;SDS011;49727;51.078;17.066;2023-03-23T20:19:27;10.32;;;6.22;;
63581;SDS011;49727;51.078;17.066;2023-03-23T20:34:27;9.48;;;4.93;;
63581;SDS011;49727;51.078;17.066;2023-03-23T20:49:28;8.60;;;4.88;;
63581;SDS011;49727;51.078;17.066;2023-03-23T21:04:29;8.47;;;5.23;;
63581;SDS011;49727;51.078;17.066;2023-03-23T21:19:30;9.13;;;5.28;;
63581;SDS011;49727;51.078;17.066;2023-03-23T21:34:31;11.03;;;5.50;;
63581;SDS011;49727;51.078;17.066;2023-03-23T21:49:31;8.35;;;5.82;;
63581;SDS011;49727;51.078;17.066;2023-03-23T22:04:32;10.73;;;6.72;;
63581;SDS011;49727;51.078;17.066;2023-03-23T22:19:32;9.82;;;5.68;;
63581;SDS011;49727;51.078;17.066;2023-03-23T22:34:33;7.85;;;4.70;;
63581;SDS011;49727;51.078;17.066;2023-03-23T22:49:33;9.13;;;4.90;;
63581;SDS011;49727;51.078;17.066;2023-03-23T23:04:34;9.07;;;4.85;;
63581;SDS011;49727;51.078;17.066;2023-03-23T23:19:34;7.28;;;3.80;;
63581;SDS011;49727;51.078;17.066;2023-03-23T23:34:36;8.70;;;4.57;;
63581;SDS011;49727;51.078;17.066;2023-03-23T23:49:36;6.00;;;3.20;;
